sensor_id;sensor_type;location;lat;lon;timestamp;P1;durP1;ratioP1;P2;durP2;ratioP2
50671;SDS011;46021;55.882;37.654;2022-08-02T00:01:56;8.30;;;4.43;;
50671;SDS011;46021;55.882;37.654;2022-08-02T00:04:23;8.60;;;5.30;;
50671;SDS011;46021;55.882;37.654;2022-08-02T00:06:49;15.48;;;6.65;;
50671;SDS011;46021;55.882;37.654;2022-08-02T00:09:16;11.98;;;6.07;;
50671;SDS011;46021;55.882;37.654;2022-08-02T00:11:43;12.63;;;6.10;;
50671;SDS011;46021;55.882;37.654;2022-08-02T00:14:10;10.07;;;4.68;;
50671;SDS011;46021;55.882;37.654;2022-08-02T00:16:36;6.25;;;4.13;;
50671;SDS011;46021;55.882;37.654;2022-08-02T00:19:03;8.75;;;4.28;;
50671;SDS011;46021;55.882;37.654;2022-08-02T00:21:29;7.47;;;4.28;;
50671;SDS011;46021;55.882;37.654;2022-08-02T00:23:56;5.97;;;3.70;;
50671;SDS011;46021;55.882;37.654;2022-08-02T00:26:24;11.85;;;4.68;;
50671;SDS011;46021;55.882;37.654;2022-08-02T00:28:50;9.02;;;3.83;;
50671;SDS011;46021;55.882;37.654;2022-08-02T00:31:17;12.20;;;4.07;;
50671;SDS011;46021;55.882;37.654;2022-08-02T00:33:43;7.80;;;4.45;;
50671;SDS011;46021;55.882;37.654;2022-08-02T00:36:10;10.55;;;4.35;;
50671;SDS011;46021;55.882;37.654;2022-08-02T00:38:36;8.68;;;4.60;;
50671;SDS011;46021;55.882;37.654;2022-08-02T00:41:03;8.77;;;4.80;;
50671;SDS011;46021;55.882;37.654;2022-08-02T00:43:37;8.43;;;4.47;;
50671;SDS011;46021;55.882;37.654;2022-08-02T00:46:04;9.35;;;4.63;;
50671;SDS011;46021;55.882;37.654;2022-08-02T00:48:30;8.50;;;4.38;;
50671;SDS011;46021;55.882;37.654;2022-08-02T00:50:57;9.02;;;4.63;;
50671;SDS011;46021;55.882;37.654;2022-08-02T00:53:23;10.02;;;5.05;;
50671;SDS011;46021;55.882;37.654;2022-08-02T00:55:50;10.13;;;5.10;;
50671;SDS011;46021;55.882;37.654;2022-08-02T00:58:17;12.52;;;4.78;;
50671;SDS011;46021;55.882;37.654;2022-08-02T01:00:44;12.93;;;4.75;;
50671;SDS011;46021;55.882;37.654;2022-08-02T01:03:10;10.35;;;4.93;;
50671;SDS011;46021;55.882;37.654;2022-08-02T01:05:37;10.02;;;5.60;;
50671;SDS011;46021;55.882;37.654;2022-08-02T01:08:03;10.73;;;5.38;;
50671;SDS011;46021;55.882;37.654;2022-08-02T01:10:30;10.85;;;5.97;;
50671;SDS011;46021;55.882;37.654;2022-08-02T01:12:57;9.88;;;5.85;;
50671;SDS011;46021;55.882;37.654;2022-08-02T01:15:23;10.55;;;5.13;;
50671;SDS011;46021;55.882;37.654;2022-08-02T01:17:53;13.10;;;7.47;;
50671;SDS011;46021;55.882;37.654;2022-08-02T01:20:34;10.85;;;5.78;;
50671;SDS011;46021;55.882;37.654;2022-08-02T01:23:19;11.18;;;6.47;;
50671;SDS011;46021;55.882;37.654;2022-08-02T01:26:02;8.57;;;5.47;;
50671;SDS011;46021;55.882;37.654;2022-08-02T01:28:48;10.80;;;6.47;;
50671;SDS011;46021;55.882;37.654;2022-08-02T01:31:20;10.73;;;6.05;;
50671;SDS011;46021;55.882;37.654;2022-08-02T01:33:52;8.10;;;5.80;;
50671;SDS011;46021;55.882;37.654;2022-08-02T01:36:24;11.18;;;5.93;;
50671;SDS011;46021;55.882;37.654;2022-08-02T01:38:55;9.40;;;5.80;;
50671;SDS011;46021;55.882;37.654;2022-08-02T01:41:24;12.32;;;6.47;;
50671;SDS011;46021;55.882;37.654;2022-08-02T01:43:55;8.70;;;5.80;;
50671;SDS011;46021;55.882;37.654;2022-08-02T01:46:24;12.38;;;5.60;;
50671;SDS011;46021;55.882;37.654;2022-08-02T01:48:53;11.38;;;6.38;;
50671;SDS011;46021;55.882;37.654;2022-08-02T01:51:21;13.23;;;6.43;;
50671;SDS011;46021;55.882;37.654;2022-08-02T01:54:04;8.50;;;5.70;;
50671;SDS011;46021;55.882;37.654;2022-08-02T01:56:35;11.40;;;6.25;;
50671;SDS011;46021;55.882;37.654;2022-08-02T02:01:31;9.18;;;6.00;;
50671;SDS011;46021;55.882;37.654;2022-08-02T02:04:01;8.95;;;5.68;;
50671;SDS011;46021;55.882;37.654;2022-08-02T02:08:57;14.48;;;6.10;;
50671;SDS011;46021;55.882;37.654;2022-08-02T02:11:25;15.70;;;5.70;;
50671;SDS011;46021;55.882;37.654;2022-08-02T02:13:51;11.32;;;6.35;;
50671;SDS011;46021;55.882;37.654;2022-08-02T02:16:19;11.05;;;5.50;;
50671;SDS011;46021;55.882;37.654;2022-08-02T02:18:47;10.52;;;5.72;;
50671;SDS011;46021;55.882;37.654;2022-08-02T02:21:15;10.52;;;5.65;;
50671;SDS011;46021;55.882;37.654;2022-08-02T02:23:41;8.95;;;5.35;;
50671;SDS011;46021;55.882;37.654;2022-08-02T02:26:09;11.38;;;6.45;;
50671;SDS011;46021;55.882;37.654;2022-08-02T02:28:38;12.75;;;5.93;;
50671;SDS011;46021;55.882;37.654;2022-08-02T02:31:07;11.77;;;5.80;;
50671;SDS011;46021;55.882;37.654;2022-08-02T02:33:39;11.18;;;6.15;;
50671;SDS011;46021;55.882;37.654;2022-08-02T02:36:09;12.40;;;5.70;;
50671;SDS011;46021;55.882;37.654;2022-08-02T02:38:36;8.68;;;5.35;;
50671;SDS011;46021;55.882;37.654;2022-08-02T02:43:32;9.23;;;5.13;;
50671;SDS011;46021;55.882;37.654;2022-08-02T02:46:01;9.27;;;5.18;;
50671;SDS011;46021;55.882;37.654;2022-08-02T02:48:29;12.13;;;5.30;;
50671;SDS011;46021;55.882;37.654;2022-08-02T02:50:57;11.07;;;6.13;;
50671;SDS011;46021;55.882;37.654;2022-08-02T02:53:25;9.73;;;5.50;;
50671;SDS011;46021;55.882;37.654;2022-08-02T02:55:54;11.73;;;5.80;;
50671;SDS011;46021;55.882;37.654;2022-08-02T02:58:22;12.65;;;5.63;;
50671;SDS011;46021;55.882;37.654;2022-08-02T03:00:50;7.72;;;5.47;;
50671;SDS011;46021;55.882;37.654;2022-08-02T03:03:35;8.57;;;5.30;;
50671;SDS011;46021;55.882;37.654;2022-08-02T03:08:30;8.88;;;5.65;;
50671;SDS011;46021;55.882;37.654;2022-08-02T03:10:56;12.10;;;6.35;;
50671;SDS011;46021;55.882;37.654;2022-08-02T03:13:23;13.88;;;6.70;;
50671;SDS011;46021;55.882;37.654;2022-08-02T03:15:50;11.63;;;6.50;;
50671;SDS011;46021;55.882;37.654;2022-08-02T03:18:31;17.67;;;7.88;;
50671;SDS011;46021;55.882;37.654;2022-08-02T03:21:01;19.95;;;7.63;;
50671;SDS011;46021;55.882;37.654;2022-08-02T03:23:31;11.10;;;5.55;;
50671;SDS011;46021;55.882;37.654;2022-08-02T03:25:57;18.73;;;7.38;;
50671;SDS011;46021;55.882;37.654;2022-08-02T03:28:24;10.90;;;5.65;;
50671;SDS011;46021;55.882;37.654;2022-08-02T03:30:52;12.27;;;6.50;;
50671;SDS011;46021;55.882;37.654;2022-08-02T03:33:19;11.98;;;5.60;;
50671;SDS011;46021;55.882;37.654;2022-08-02T03:35:47;13.25;;;6.75;;
50671;SDS011;46021;55.882;37.654;2022-08-02T03:38:16;11.43;;;5.78;;
50671;SDS011;46021;55.882;37.654;2022-08-02T03:40:44;9.80;;;6.35;;
50671;SDS011;46021;55.882;37.654;2022-08-02T03:45:39;21.33;;;6.22;;
50671;SDS011;46021;55.882;37.654;2022-08-02T03:48:09;18.95;;;6.72;;
50671;SDS011;46021;55.882;37.654;2022-08-02T03:50:37;18.25;;;6.22;;
50671;SDS011;46021;55.882;37.654;2022-08-02T03:53:05;13.40;;;5.95;;
50671;SDS011;46021;55.882;37.654;2022-08-02T03:55:33;13.73;;;6.38;;
50671;SDS011;46021;55.882;37.654;2022-08-02T03:58:00;23.13;;;7.55;;
50671;SDS011;46021;55.882;37.654;2022-08-02T04:00:27;17.85;;;6.22;;
50671;SDS011;46021;55.882;37.654;2022-08-02T04:02:54;15.43;;;6.53;;
50671;SDS011;46021;55.882;37.654;2022-08-02T04:05:20;18.40;;;8.33;;
50671;SDS011;46021;55.882;37.654;2022-08-02T04:07:47;16.37;;;7.70;;
50671;SDS011;46021;55.882;37.654;2022-08-02T04:10:15;15.32;;;7.82;;
50671;SDS011;46021;55.882;37.654;2022-08-02T04:15:10;20.63;;;7.50;;
50671;SDS011;46021;55.882;37.654;2022-08-02T04:17:40;18.50;;;7.80;;
50671;SDS011;46021;55.882;37.654;2022-08-02T04:20:09;22.42;;;8.43;;
50671;SDS011;46021;55.882;37.654;2022-08-02T04:22:51;18.15;;;7.78;;
50671;SDS011;46021;55.882;37.654;2022-08-02T04:25:22;27.95;;;7.75;;
50671;SDS011;46021;55.882;37.654;2022-08-02T04:27:50;16.88;;;8.05;;
50671;SDS011;46021;55.882;37.654;2022-08-02T04:30:18;16.25;;;7.72;;
50671;SDS011;46021;55.882;37.654;2022-08-02T04:32:45;15.85;;;7.32;;
50671;SDS011;46021;55.882;37.654;2022-08-02T04:35:12;20.50;;;7.70;;
50671;SDS011;46021;55.882;37.654;2022-08-02T04:37:40;17.55;;;7.05;;
50671;SDS011;46021;55.882;37.654;2022-08-02T04:40:08;17.25;;;7.75;;
50671;SDS011;46021;55.882;37.654;2022-08-02T04:42:36;21.90;;;8.13;;
50671;SDS011;46021;55.882;37.654;2022-08-02T04:45:05;16.02;;;7.07;;
50671;SDS011;46021;55.882;37.654;2022-08-02T04:47:33;30.63;;;6.93;;
50671;SDS011;46021;55.882;37.654;2022-08-02T04:50:00;17.88;;;7.30;;
50671;SDS011;46021;55.882;37.654;2022-08-02T04:52:28;17.27;;;7.15;;
50671;SDS011;46021;55.882;37.654;2022-08-02T04:54:55;18.02;;;8.20;;
50671;SDS011;46021;55.882;37.654;2022-08-02T04:57:21;26.75;;;7.82;;
50671;SDS011;46021;55.882;37.654;2022-08-02T05:00:08;22.50;;;7.93;;
50671;SDS011;46021;55.882;37.654;2022-08-02T05:02:35;18.65;;;8.95;;
50671;SDS011;46021;55.882;37.654;2022-08-02T05:05:02;22.45;;;10.60;;
50671;SDS011;46021;55.882;37.654;2022-08-02T05:07:29;17.92;;;8.50;;
50671;SDS011;46021;55.882;37.654;2022-08-02T05:09:56;23.58;;;10.32;;
50671;SDS011;46021;55.882;37.654;2022-08-02T05:12:22;23.13;;;9.15;;
50671;SDS011;46021;55.882;37.654;2022-08-02T05:14:50;22.38;;;8.00;;
50671;SDS011;46021;55.882;37.654;2022-08-02T05:17:17;24.42;;;9.23;;
50671;SDS011;46021;55.882;37.654;2022-08-02T05:19:44;27.02;;;10.02;;
50671;SDS011;46021;55.882;37.654;2022-08-02T05:22:10;20.35;;;7.75;;
50671;SDS011;46021;55.882;37.654;2022-08-02T05:24:37;26.30;;;9.10;;
50671;SDS011;46021;55.882;37.654;2022-08-02T05:27:03;23.80;;;9.60;;
50671;SDS011;46021;55.882;37.654;2022-08-02T05:29:30;25.05;;;8.93;;
50671;SDS011;46021;55.882;37.654;2022-08-02T05:34:23;26.00;;;9.38;;
50671;SDS011;46021;55.882;37.654;2022-08-02T05:36:50;21.38;;;7.82;;
50671;SDS011;46021;55.882;37.654;2022-08-02T05:41:43;20.63;;;8.02;;
50671;SDS011;46021;55.882;37.654;2022-08-02T05:44:09;19.23;;;7.35;;
50671;SDS011;46021;55.882;37.654;2022-08-02T05:49:02;22.45;;;7.35;;
50671;SDS011;46021;55.882;37.654;2022-08-02T05:51:32;24.08;;;12.25;;
50671;SDS011;46021;55.882;37.654;2022-08-02T05:54:04;22.65;;;8.98;;
50671;SDS011;46021;55.882;37.654;2022-08-02T05:56:37;31.85;;;12.35;;
50671;SDS011;46021;55.882;37.654;2022-08-02T05:59:11;30.98;;;10.05;;
50671;SDS011;46021;55.882;37.654;2022-08-02T06:01:46;28.77;;;15.18;;
50671;SDS011;46021;55.882;37.654;2022-08-02T06:04:17;26.40;;;9.13;;
50671;SDS011;46021;55.882;37.654;2022-08-02T06:06:50;28.83;;;13.18;;
50671;SDS011;46021;55.882;37.654;2022-08-02T06:09:20;25.90;;;10.02;;
50671;SDS011;46021;55.882;37.654;2022-08-02T06:11:50;25.33;;;10.13;;
50671;SDS011;46021;55.882;37.654;2022-08-02T06:14:18;21.83;;;9.05;;
50671;SDS011;46021;55.882;37.654;2022-08-02T06:16:45;27.17;;;8.48;;
50671;SDS011;46021;55.882;37.654;2022-08-02T06:19:11;19.33;;;8.82;;
50671;SDS011;46021;55.882;37.654;2022-08-02T06:21:39;18.00;;;8.48;;
50671;SDS011;46021;55.882;37.654;2022-08-02T06:24:07;17.25;;;7.88;;
50671;SDS011;46021;55.882;37.654;2022-08-02T06:26:34;15.27;;;6.22;;
50671;SDS011;46021;55.882;37.654;2022-08-02T06:29:02;12.32;;;5.82;;
50671;SDS011;46021;55.882;37.654;2022-08-02T06:31:29;16.27;;;6.45;;
50671;SDS011;46021;55.882;37.654;2022-08-02T06:34:00;14.80;;;5.88;;
50671;SDS011;46021;55.882;37.654;2022-08-02T06:36:33;12.90;;;6.00;;
50671;SDS011;46021;55.882;37.654;2022-08-02T06:39:07;19.73;;;6.65;;
50671;SDS011;46021;55.882;37.654;2022-08-02T06:41:42;15.07;;;6.10;;
50671;SDS011;46021;55.882;37.654;2022-08-02T06:44:21;22.23;;;7.03;;
50671;SDS011;46021;55.882;37.654;2022-08-02T06:46:48;14.88;;;6.38;;
50671;SDS011;46021;55.882;37.654;2022-08-02T06:49:15;18.52;;;8.70;;
50671;SDS011;46021;55.882;37.654;2022-08-02T06:51:42;12.05;;;4.80;;
50671;SDS011;46021;55.882;37.654;2022-08-02T06:54:10;15.30;;;6.75;;
50671;SDS011;46021;55.882;37.654;2022-08-02T06:56:37;16.58;;;5.05;;
50671;SDS011;46021;55.882;37.654;2022-08-02T06:59:03;13.75;;;6.28;;
50671;SDS011;46021;55.882;37.654;2022-08-02T07:01:30;10.07;;;5.07;;
50671;SDS011;46021;55.882;37.654;2022-08-02T07:03:56;13.85;;;5.13;;
50671;SDS011;46021;55.882;37.654;2022-08-02T07:06:23;13.27;;;5.22;;
50671;SDS011;46021;55.882;37.654;2022-08-02T07:08:50;12.10;;;5.28;;
50671;SDS011;46021;55.882;37.654;2022-08-02T07:11:17;12.07;;;4.97;;
50671;SDS011;46021;55.882;37.654;2022-08-02T07:16:10;12.25;;;4.60;;
50671;SDS011;46021;55.882;37.654;2022-08-02T07:18:36;14.07;;;5.65;;
50671;SDS011;46021;55.882;37.654;2022-08-02T07:21:03;14.05;;;4.40;;
50671;SDS011;46021;55.882;37.654;2022-08-02T07:23:30;13.45;;;4.90;;
50671;SDS011;46021;55.882;37.654;2022-08-02T07:25:57;10.65;;;4.55;;
50671;SDS011;46021;55.882;37.654;2022-08-02T07:28:24;10.80;;;4.68;;
50671;SDS011;46021;55.882;37.654;2022-08-02T07:30:51;14.90;;;4.63;;
50671;SDS011;46021;55.882;37.654;2022-08-02T07:33:18;47.60;;;25.20;;
50671;SDS011;46021;55.882;37.654;2022-08-02T07:35:45;10.87;;;5.00;;
50671;SDS011;46021;55.882;37.654;2022-08-02T07:38:11;10.05;;;3.40;;
50671;SDS011;46021;55.882;37.654;2022-08-02T07:40:38;7.00;;;2.80;;
50671;SDS011;46021;55.882;37.654;2022-08-02T07:43:04;4.33;;;2.07;;
50671;SDS011;46021;55.882;37.654;2022-08-02T07:45:32;6.55;;;3.08;;
50671;SDS011;46021;55.882;37.654;2022-08-02T07:47:58;6.50;;;3.10;;
50671;SDS011;46021;55.882;37.654;2022-08-02T07:50:25;7.80;;;3.60;;
50671;SDS011;46021;55.882;37.654;2022-08-02T07:52:52;6.18;;;2.78;;
50671;SDS011;46021;55.882;37.654;2022-08-02T07:55:19;6.70;;;3.27;;
50671;SDS011;46021;55.882;37.654;2022-08-02T07:57:46;10.87;;;2.90;;
50671;SDS011;46021;55.882;37.654;2022-08-02T08:02:41;4.90;;;2.60;;
50671;SDS011;46021;55.882;37.654;2022-08-02T08:05:08;7.75;;;2.65;;
50671;SDS011;46021;55.882;37.654;2022-08-02T08:07:35;4.28;;;2.03;;
50671;SDS011;46021;55.882;37.654;2022-08-02T08:10:02;4.93;;;2.20;;
50671;SDS011;46021;55.882;37.654;2022-08-02T08:12:29;7.55;;;2.00;;
50671;SDS011;46021;55.882;37.654;2022-08-02T08:14:56;3.85;;;1.80;;
50671;SDS011;46021;55.882;37.654;2022-08-02T08:17:22;2.63;;;1.67;;
50671;SDS011;46021;55.882;37.654;2022-08-02T08:19:50;5.97;;;2.25;;
50671;SDS011;46021;55.882;37.654;2022-08-02T08:22:18;5.40;;;2.25;;
50671;SDS011;46021;55.882;37.654;2022-08-02T08:24:45;7.07;;;2.15;;
50671;SDS011;46021;55.882;37.654;2022-08-02T08:27:12;8.73;;;5.18;;
50671;SDS011;46021;55.882;37.654;2022-08-02T08:29:40;3.00;;;1.70;;
50671;SDS011;46021;55.882;37.654;2022-08-02T08:32:07;4.45;;;1.88;;
50671;SDS011;46021;55.882;37.654;2022-08-02T08:34:33;4.93;;;2.20;;
50671;SDS011;46021;55.882;37.654;2022-08-02T08:37:01;4.13;;;1.23;;
50671;SDS011;46021;55.882;37.654;2022-08-02T08:39:28;4.40;;;1.60;;
50671;SDS011;46021;55.882;37.654;2022-08-02T08:41:54;3.58;;;1.85;;
50671;SDS011;46021;55.882;37.654;2022-08-02T08:44:21;5.93;;;1.88;;
50671;SDS011;46021;55.882;37.654;2022-08-02T08:46:48;9.13;;;1.77;;
50671;SDS011;46021;55.882;37.654;2022-08-02T08:49:17;3.17;;;1.95;;
50671;SDS011;46021;55.882;37.654;2022-08-02T08:51:48;5.90;;;2.10;;
50671;SDS011;46021;55.882;37.654;2022-08-02T08:54:19;6.53;;;3.08;;
50671;SDS011;46021;55.882;37.654;2022-08-02T08:56:49;5.38;;;2.55;;
50671;SDS011;46021;55.882;37.654;2022-08-02T08:59:19;5.03;;;2.15;;
50671;SDS011;46021;55.882;37.654;2022-08-02T09:01:46;4.82;;;2.10;;
50671;SDS011;46021;55.882;37.654;2022-08-02T09:04:14;5.75;;;1.95;;
50671;SDS011;46021;55.882;37.654;2022-08-02T09:06:41;3.83;;;1.80;;
50671;SDS011;46021;55.882;37.654;2022-08-02T09:11:35;2.38;;;1.67;;
50671;SDS011;46021;55.882;37.654;2022-08-02T09:14:01;9.60;;;2.03;;
50671;SDS011;46021;55.882;37.654;2022-08-02T09:16:29;6.57;;;2.22;;
50671;SDS011;46021;55.882;37.654;2022-08-02T09:18:58;7.13;;;1.98;;
50671;SDS011;46021;55.882;37.654;2022-08-02T09:21:32;7.70;;;2.20;;
50671;SDS011;46021;55.882;37.654;2022-08-02T09:24:00;3.42;;;1.80;;
50671;SDS011;46021;55.882;37.654;2022-08-02T09:28:58;2.83;;;1.70;;
50671;SDS011;46021;55.882;37.654;2022-08-02T09:31:26;5.03;;;1.73;;
50671;SDS011;46021;55.882;37.654;2022-08-02T09:33:54;4.90;;;2.00;;
50671;SDS011;46021;55.882;37.654;2022-08-02T09:36:22;4.10;;;1.92;;
50671;SDS011;46021;55.882;37.654;2022-08-02T09:38:53;3.90;;;1.73;;
50671;SDS011;46021;55.882;37.654;2022-08-02T09:41:21;3.80;;;1.60;;
50671;SDS011;46021;55.882;37.654;2022-08-02T09:43:50;2.83;;;1.67;;
50671;SDS011;46021;55.882;37.654;2022-08-02T09:46:18;4.15;;;1.90;;
50671;SDS011;46021;55.882;37.654;2022-08-02T09:48:47;6.60;;;1.83;;
50671;SDS011;46021;55.882;37.654;2022-08-02T09:51:18;7.95;;;2.85;;
50671;SDS011;46021;55.882;37.654;2022-08-02T09:53:47;6.85;;;2.25;;
50671;SDS011;46021;55.882;37.654;2022-08-02T09:56:15;5.50;;;2.17;;
50671;SDS011;46021;55.882;37.654;2022-08-02T09:58:42;5.28;;;3.35;;
50671;SDS011;46021;55.882;37.654;2022-08-02T10:01:10;9.90;;;6.30;;
50671;SDS011;46021;55.882;37.654;2022-08-02T10:03:37;4.50;;;2.85;;
50671;SDS011;46021;55.882;37.654;2022-08-02T10:06:19;9.30;;;6.15;;
50671;SDS011;46021;55.882;37.654;2022-08-02T10:08:46;8.32;;;3.42;;
50671;SDS011;46021;55.882;37.654;2022-08-02T10:13:39;4.78;;;2.97;;
50671;SDS011;46021;55.882;37.654;2022-08-02T10:16:05;5.85;;;2.83;;
50671;SDS011;46021;55.882;37.654;2022-08-02T10:18:32;4.18;;;2.15;;
50671;SDS011;46021;55.882;37.654;2022-08-02T10:21:00;4.03;;;2.13;;
50671;SDS011;46021;55.882;37.654;2022-08-02T10:23:28;6.15;;;2.42;;
50671;SDS011;46021;55.882;37.654;2022-08-02T10:25:58;3.75;;;2.13;;
50671;SDS011;46021;55.882;37.654;2022-08-02T10:28:27;6.07;;;2.08;;
50671;SDS011;46021;55.882;37.654;2022-08-02T10:30:55;7.82;;;2.25;;
50671;SDS011;46021;55.882;37.654;2022-08-02T10:33:23;5.00;;;1.80;;
50671;SDS011;46021;55.882;37.654;2022-08-02T10:35:52;3.88;;;2.60;;
50671;SDS011;46021;55.882;37.654;2022-08-02T10:38:23;4.40;;;1.90;;
50671;SDS011;46021;55.882;37.654;2022-08-02T10:40:51;7.22;;;2.50;;
50671;SDS011;46021;55.882;37.654;2022-08-02T10:46:21;8.57;;;3.13;;
50671;SDS011;46021;55.882;37.654;2022-08-02T10:54:39;4.55;;;2.88;;
50671;SDS011;46021;55.882;37.654;2022-08-02T10:57:13;7.78;;;2.50;;
50671;SDS011;46021;55.882;37.654;2022-08-02T10:59:42;5.30;;;2.33;;
50671;SDS011;46021;55.882;37.654;2022-08-02T11:02:09;6.47;;;2.67;;
50671;SDS011;46021;55.882;37.654;2022-08-02T11:07:32;4.38;;;2.30;;
50671;SDS011;46021;55.882;37.654;2022-08-02T11:13:00;7.60;;;2.50;;
50671;SDS011;46021;55.882;37.654;2022-08-02T11:15:45;7.22;;;2.40;;
50671;SDS011;46021;55.882;37.654;2022-08-02T11:18:14;10.40;;;3.47;;
50671;SDS011;46021;55.882;37.654;2022-08-02T11:20:41;9.82;;;2.47;;
50671;SDS011;46021;55.882;37.654;2022-08-02T11:25:53;5.78;;;3.33;;
50671;SDS011;46021;55.882;37.654;2022-08-02T11:28:19;7.95;;;2.80;;
50671;SDS011;46021;55.882;37.654;2022-08-02T11:30:47;5.35;;;2.60;;
50671;SDS011;46021;55.882;37.654;2022-08-02T11:33:23;6.95;;;2.72;;
50671;SDS011;46021;55.882;37.654;2022-08-02T11:35:58;8.10;;;3.28;;
50671;SDS011;46021;55.882;37.654;2022-08-02T11:38:26;9.55;;;2.80;;
50671;SDS011;46021;55.882;37.654;2022-08-02T11:40:54;3.83;;;2.65;;
50671;SDS011;46021;55.882;37.654;2022-08-02T11:43:22;3.70;;;2.40;;
50671;SDS011;46021;55.882;37.654;2022-08-02T11:45:51;5.93;;;2.92;;
50671;SDS011;46021;55.882;37.654;2022-08-02T11:48:30;6.22;;;3.40;;
50671;SDS011;46021;55.882;37.654;2022-08-02T11:51:04;8.60;;;3.90;;
50671;SDS011;46021;55.882;37.654;2022-08-02T11:53:42;6.82;;;4.35;;
50671;SDS011;46021;55.882;37.654;2022-08-02T11:56:11;15.18;;;7.72;;
50671;SDS011;46021;55.882;37.654;2022-08-02T11:58:38;10.20;;;6.40;;
50671;SDS011;46021;55.882;37.654;2022-08-02T12:01:05;10.40;;;3.78;;
50671;SDS011;46021;55.882;37.654;2022-08-02T12:03:32;10.82;;;6.70;;
50671;SDS011;46021;55.882;37.654;2022-08-02T12:06:00;10.23;;;5.75;;
50671;SDS011;46021;55.882;37.654;2022-08-02T12:08:27;8.98;;;3.78;;
50671;SDS011;46021;55.882;37.654;2022-08-02T12:10:53;7.47;;;2.85;;
50671;SDS011;46021;55.882;37.654;2022-08-02T12:13:20;7.00;;;4.63;;
50671;SDS011;46021;55.882;37.654;2022-08-02T12:15:47;9.63;;;5.60;;
50671;SDS011;46021;55.882;37.654;2022-08-02T12:18:15;5.32;;;3.03;;
50671;SDS011;46021;55.882;37.654;2022-08-02T12:21:01;7.82;;;3.53;;
50671;SDS011;46021;55.882;37.654;2022-08-02T12:23:29;8.18;;;4.03;;
50671;SDS011;46021;55.882;37.654;2022-08-02T12:25:59;9.48;;;3.00;;
50671;SDS011;46021;55.882;37.654;2022-08-02T12:28:31;5.75;;;2.67;;
50671;SDS011;46021;55.882;37.654;2022-08-02T12:30:59;10.30;;;3.20;;
50671;SDS011;46021;55.882;37.654;2022-08-02T12:33:27;4.45;;;3.05;;
50671;SDS011;46021;55.882;37.654;2022-08-02T12:35:54;3.90;;;2.30;;
50671;SDS011;46021;55.882;37.654;2022-08-02T12:38:21;12.10;;;2.38;;
50671;SDS011;46021;55.882;37.654;2022-08-02T12:40:48;3.60;;;2.20;;
50671;SDS011;46021;55.882;37.654;2022-08-02T12:43:15;6.05;;;1.95;;
50671;SDS011;46021;55.882;37.654;2022-08-02T12:45:45;7.35;;;2.60;;
50671;SDS011;46021;55.882;37.654;2022-08-02T12:48:13;5.22;;;2.00;;
50671;SDS011;46021;55.882;37.654;2022-08-02T12:50:40;7.13;;;2.78;;
50671;SDS011;46021;55.882;37.654;2022-08-02T12:53:08;11.02;;;5.13;;
50671;SDS011;46021;55.882;37.654;2022-08-02T12:55:37;4.72;;;1.90;;
50671;SDS011;46021;55.882;37.654;2022-08-02T12:58:12;6.18;;;1.85;;
50671;SDS011;46021;55.882;37.654;2022-08-02T13:00:39;8.65;;;2.42;;
50671;SDS011;46021;55.882;37.654;2022-08-02T13:03:07;4.82;;;1.70;;
50671;SDS011;46021;55.882;37.654;2022-08-02T13:05:34;3.92;;;1.90;;
50671;SDS011;46021;55.882;37.654;2022-08-02T13:08:01;7.65;;;4.45;;
50671;SDS011;46021;55.882;37.654;2022-08-02T13:10:28;10.65;;;2.20;;
50671;SDS011;46021;55.882;37.654;2022-08-02T13:12:55;7.18;;;4.13;;
50671;SDS011;46021;55.882;37.654;2022-08-02T13:15:22;4.95;;;2.13;;
50671;SDS011;46021;55.882;37.654;2022-08-02T13:17:48;4.18;;;2.60;;
50671;SDS011;46021;55.882;37.654;2022-08-02T13:20:15;5.47;;;2.58;;
50671;SDS011;46021;55.882;37.654;2022-08-02T13:22:42;4.72;;;2.03;;
50671;SDS011;46021;55.882;37.654;2022-08-02T13:25:09;4.53;;;2.13;;
50671;SDS011;46021;55.882;37.654;2022-08-02T13:30:03;2.55;;;2.00;;
50671;SDS011;46021;55.882;37.654;2022-08-02T13:32:30;3.63;;;2.35;;
50671;SDS011;46021;55.882;37.654;2022-08-02T13:34:57;4.35;;;2.25;;
50671;SDS011;46021;55.882;37.654;2022-08-02T13:37:25;6.95;;;3.17;;
50671;SDS011;46021;55.882;37.654;2022-08-02T13:39:52;3.80;;;2.10;;
50671;SDS011;46021;55.882;37.654;2022-08-02T13:42:19;12.45;;;3.40;;
50671;SDS011;46021;55.882;37.654;2022-08-02T13:44:46;13.88;;;6.63;;
50671;SDS011;46021;55.882;37.654;2022-08-02T13:47:12;4.25;;;2.53;;
50671;SDS011;46021;55.882;37.654;2022-08-02T13:49:40;4.97;;;2.85;;
50671;SDS011;46021;55.882;37.654;2022-08-02T13:52:06;10.77;;;5.10;;
50671;SDS011;46021;55.882;37.654;2022-08-02T13:54:34;9.70;;;2.55;;
50671;SDS011;46021;55.882;37.654;2022-08-02T13:59:27;7.88;;;2.78;;
50671;SDS011;46021;55.882;37.654;2022-08-02T14:01:53;10.65;;;3.28;;
50671;SDS011;46021;55.882;37.654;2022-08-02T14:04:22;6.15;;;2.38;;
50671;SDS011;46021;55.882;37.654;2022-08-02T14:06:50;7.22;;;3.05;;
50671;SDS011;46021;55.882;37.654;2022-08-02T14:09:17;6.32;;;3.83;;
50671;SDS011;46021;55.882;37.654;2022-08-02T14:11:44;6.70;;;2.50;;
50671;SDS011;46021;55.882;37.654;2022-08-02T14:14:11;9.55;;;4.10;;
50671;SDS011;46021;55.882;37.654;2022-08-02T14:16:38;7.38;;;3.78;;
50671;SDS011;46021;55.882;37.654;2022-08-02T14:19:04;8.23;;;4.40;;
50671;SDS011;46021;55.882;37.654;2022-08-02T14:21:31;3.95;;;2.33;;
50671;SDS011;46021;55.882;37.654;2022-08-02T14:23:57;8.50;;;2.45;;
50671;SDS011;46021;55.882;37.654;2022-08-02T14:26:24;4.50;;;2.45;;
50671;SDS011;46021;55.882;37.654;2022-08-02T14:31:18;5.90;;;2.38;;
50671;SDS011;46021;55.882;37.654;2022-08-02T14:33:45;4.45;;;2.05;;
50671;SDS011;46021;55.882;37.654;2022-08-02T14:36:12;5.43;;;1.80;;
50671;SDS011;46021;55.882;37.654;2022-08-02T14:38:39;5.95;;;2.80;;
50671;SDS011;46021;55.882;37.654;2022-08-02T14:41:05;2.92;;;1.90;;
50671;SDS011;46021;55.882;37.654;2022-08-02T14:43:32;5.07;;;2.03;;
50671;SDS011;46021;55.882;37.654;2022-08-02T14:46:17;9.88;;;2.03;;
50671;SDS011;46021;55.882;37.654;2022-08-02T14:51:10;4.70;;;2.72;;
50671;SDS011;46021;55.882;37.654;2022-08-02T14:53:37;2.55;;;2.00;;
50671;SDS011;46021;55.882;37.654;2022-08-02T14:56:04;6.63;;;1.85;;
50671;SDS011;46021;55.882;37.654;2022-08-02T14:58:31;6.45;;;2.55;;
50671;SDS011;46021;55.882;37.654;2022-08-02T15:00:57;5.90;;;3.33;;
50671;SDS011;46021;55.882;37.654;2022-08-02T15:03:25;4.18;;;2.20;;
50671;SDS011;46021;55.882;37.654;2022-08-02T15:05:51;8.05;;;2.70;;
50671;SDS011;46021;55.882;37.654;2022-08-02T15:08:18;5.32;;;2.10;;
50671;SDS011;46021;55.882;37.654;2022-08-02T15:10:44;3.28;;;1.90;;
50671;SDS011;46021;55.882;37.654;2022-08-02T15:13:11;5.65;;;2.20;;
50671;SDS011;46021;55.882;37.654;2022-08-02T15:15:37;5.97;;;2.10;;
50671;SDS011;46021;55.882;37.654;2022-08-02T15:18:04;4.90;;;2.20;;
50671;SDS011;46021;55.882;37.654;2022-08-02T15:20:31;3.97;;;2.35;;
50671;SDS011;46021;55.882;37.654;2022-08-02T15:22:58;5.90;;;2.40;;
50671;SDS011;46021;55.882;37.654;2022-08-02T15:25:27;4.40;;;2.50;;
50671;SDS011;46021;55.882;37.654;2022-08-02T15:27:53;4.28;;;2.58;;
50671;SDS011;46021;55.882;37.654;2022-08-02T15:30:20;6.32;;;2.33;;
50671;SDS011;46021;55.882;37.654;2022-08-02T15:32:47;7.80;;;3.17;;
50671;SDS011;46021;55.882;37.654;2022-08-02T15:37:42;4.53;;;2.08;;
50671;SDS011;46021;55.882;37.654;2022-08-02T15:42:38;9.77;;;2.40;;